Time;durP1;ratioP1;P1;durP2;ratioP2;P2;SDS_P1;SDS_P2;PMS_P1;PMS_P2;Temp;Humidity;BMP_temperature;BMP_pressure;BME280_temperature;BME280_humidity;BME280_pressure;Samples;Min_cycle;Max_cycle;Signal;HPM_P1;HPM_P2
2023/06/02 00:01:02;;;;;;;;;;;19.00;51.30;;;;;;5071353;28;19967;-67
2023/06/02 00:03:32;;;;;;;;;;;19.00;51.30;;;;;;5071272;28;19924;-67
2023/06/02 00:05:59;;;;;;;;;;;19.00;51.30;;;;;;5072254;28;19959;-67
2023/06/02 00:08:25;;;;;;;;;;;18.90;51.30;;;;;;5071234;28;20007;-67
2023/06/02 00:10:51;;;;;;;;;;;18.90;51.30;;;;;;5070619;28;19924;-66
2023/06/02 00:13:17;;;;;;;;;;;18.90;51.30;;;;;;5071165;28;19921;-67
2023/06/02 00:15:43;;;;;;;;;;;18.90;51.20;;;;;;5071200;28;19920;-67
2023/06/02 00:18:08;;;;;;;;;;;18.90;51.30;;;;;;5071172;28;19932;-66
2023/06/02 00:20:34;;;;;;;;;;;18.90;51.30;;;;;;5070950;28;19921;-67
2023/06/02 00:23:01;;;;;;;;;;;18.90;51.20;;;;;;5072013;28;19974;-67
2023/06/02 00:25:27;;;;;;;;;;;18.90;51.20;;;;;;5071175;28;19973;-67
2023/06/02 00:27:53;;;;;;;;;;;18.90;51.20;;;;;;5072131;28;19924;-67
2023/06/02 00:30:18;;;;;;;;;;;18.90;51.20;;;;;;5071896;28;20003;-67
2023/06/02 00:32:44;;;;;;;;;;;18.90;51.20;;;;;;5070754;28;20372;-67
2023/06/02 00:35:10;;;;;;;;;;;18.90;51.20;;;;;;5070971;28;19921;-67
2023/06/02 00:37:35;;;;;;;;;;;18.90;51.10;;;;;;5071027;28;19920;-67
2023/06/02 00:40:01;;;;;;;;;;;18.80;51.20;;;;;;5070670;28;20371;-67
2023/06/02 00:42:26;;;;;;;;;;;18.90;51.10;;;;;;5072164;28;20025;-67
2023/06/02 00:44:52;;;;;;;;;;;18.80;51.10;;;;;;5070584;28;19928;-66
2023/06/02 00:47:17;;;;;;;;;;;18.80;51.10;;;;;;5070612;28;19924;-67
2023/06/02 00:49:43;;;;;;;;;;;18.80;51.10;;;;;;5070483;28;19927;-67
2023/06/02 00:52:09;;;;;;;;;;;18.80;51.10;;;;;;5070911;28;19967;-66
2023/06/02 00:54:35;;;;;;;;;;;18.80;51.10;;;;;;5071765;28;20425;-67
2023/06/02 00:57:00;;;;;;;;;;;18.80;51.10;;;;;;5072175;28;19969;-67
2023/06/02 00:59:27;;;;;;;;;;;18.80;51.10;;;;;;5075454;28;19925;-67
2023/06/02 01:01:53;;;;;;;;;;;18.80;51.10;;;;;;5074295;28;19995;-66
2023/06/02 01:04:20;;;;;;;;;;;18.80;51.10;;;;;;5074583;28;19968;-67
2023/06/02 01:06:48;;;;;;;;;;;18.80;51.10;;;;;;5074127;28;19921;-67
2023/06/02 01:09:16;;;;;;;;;;;18.80;51.10;;;;;;5074377;28;19921;-67
2023/06/02 01:11:42;;;;;;;;;;;18.80;51.10;;;;;;5095053;28;20290;-67
2023/06/02 01:14:09;;;;;;;;;;;18.70;51.00;;;;;;5077704;28;19928;-66
2023/06/02 01:16:35;;;;;;;;;;;18.80;51.10;;;;;;5077407;28;19920;-67
2023/06/02 01:19:01;;;;;;;;;;;18.70;51.00;;;;;;5077526;28;20359;-66
2023/06/02 01:21:30;;;;;;;;;;;18.70;51.00;;;;;;5077449;28;20283;-67
2023/06/02 01:23:57;;;;;;;;;;;18.70;51.00;;;;;;5095228;28;19924;-66
2023/06/02 01:26:23;;;;;;;;;;;18.70;51.00;;;;;;5077067;28;20379;-66
2023/06/02 01:28:49;;;;;;;;;;;18.70;51.00;;;;;;5077385;28;19945;-66
2023/06/02 01:31:17;;;;;;;;;;;18.70;51.00;;;;;;5093946;28;19924;-67
2023/06/02 01:33:55;;;;;;;;;;;18.70;51.00;;;;;;5077354;28;19928;-67
2023/06/02 01:36:22;;;;;;;;;;;18.70;51.00;;;;;;5094074;28;19920;-66
2023/06/02 01:38:48;;;;;;;;;;;18.70;51.00;;;;;;5094113;28;20009;-66
2023/06/02 01:41:15;;;;;;;;;;;18.70;51.00;;;;;;5077191;28;19920;-66
2023/06/02 01:43:41;;;;;;;;;;;18.70;51.00;;;;;;5076879;28;19920;-67
2023/06/02 01:46:06;;;;;;;;;;;18.70;50.90;;;;;;5076739;28;19950;-67
2023/06/02 01:48:32;;;;;;;;;;;18.70;51.00;;;;;;5076782;28;20335;-66
2023/06/02 01:50:57;;;;;;;;;;;18.70;51.00;;;;;;5094773;28;19924;-66
2023/06/02 01:53:26;;;;;;;;;;;18.70;50.90;;;;;;5076621;28;19920;-67
2023/06/02 01:55:52;;;;;;;;;;;18.70;51.00;;;;;;5094816;28;19967;-66
2023/06/02 01:58:18;;;;;;;;;;;18.70;51.00;;;;;;5076817;28;19920;-67
2023/06/02 02:00:43;;;;;;;;;;;18.70;51.00;;;;;;5076537;28;19971;-67
2023/06/02 02:03:09;;;;;;;;;;;18.70;51.00;;;;;;5093448;28;19920;-67
2023/06/02 02:05:35;;;;;;;;;;;18.60;50.90;;;;;;5076395;28;20006;-66
2023/06/02 02:08:00;;;;;;;;;;;18.60;50.90;;;;;;5076487;28;19920;-67
2023/06/02 02:10:26;;;;;;;;;;;18.60;50.90;;;;;;5094149;28;19924;-66
2023/06/02 02:12:51;;;;;;;;;;;18.60;50.90;;;;;;5094374;28;19920;-66
2023/06/02 02:15:17;;;;;;;;;;;18.60;50.90;;;;;;5094682;28;19999;-66
2023/06/02 02:17:45;;;;;;;;;;;18.60;50.80;;;;;;5076226;28;19976;-67
2023/06/02 02:20:12;;;;;;;;;;;18.60;50.90;;;;;;5076488;28;20428;-66
2023/06/02 02:22:38;;;;;;;;;;;18.60;50.90;;;;;;5094110;28;19935;-67
2023/06/02 02:25:04;;;;;;;;;;;18.60;50.80;;;;;;5076329;28;19920;-67
2023/06/02 02:27:29;;;;;;;;;;;18.60;50.80;;;;;;5094280;28;19950;-67
2023/06/02 02:29:55;;;;;;;;;;;18.60;50.90;;;;;;5075945;28;20386;-67
2023/06/02 02:32:20;;;;;;;;;;;18.60;50.90;;;;;;5076172;28;20015;-67
2023/06/02 02:34:46;;;;;;;;;;;18.60;50.90;;;;;;5076197;28;19935;-67
2023/06/02 02:37:12;;;;;;;;;;;18.60;50.90;;;;;;5093966;28;20394;-67
2023/06/02 02:39:38;;;;;;;;;;;18.50;50.80;;;;;;5075660;28;19927;-67
2023/06/02 02:42:04;;;;;;;;;;;18.60;50.80;;;;;;5076084;28;19920;-67
2023/06/02 02:44:30;;;;;;;;;;;18.50;50.80;;;;;;5075926;28;19920;-66
2023/06/02 02:46:58;;;;;;;;;;;18.60;50.90;;;;;;5093809;28;19920;-66
2023/06/02 02:49:23;;;;;;;;;;;18.50;50.80;;;;;;5094204;28;19920;-66
2023/06/02 02:51:49;;;;;;;;;;;18.50;50.80;;;;;;5093619;28;19950;-66
2023/06/02 02:54:14;;;;;;;;;;;18.50;50.80;;;;;;5093532;28;19966;-67
2023/06/02 02:56:40;;;;;;;;;;;18.50;50.80;;;;;;5075759;28;19920;-67
2023/06/02 02:59:05;;;;;;;;;;;18.50;50.80;;;;;;5075238;28;19935;-66
2023/06/02 03:01:32;;;;;;;;;;;18.50;50.80;;;;;;5075626;28;19920;-67
2023/06/02 03:03:58;;;;;;;;;;;18.60;50.90;;;;;;5075246;28;19928;-67
2023/06/02 03:06:28;;;;;;;;;;;18.80;50.50;;;;;;5075302;28;19954;-67
2023/06/02 03:08:53;;;;;;;;;;;19.10;50.10;;;;;;5075334;28;19920;-67
2023/06/02 03:11:19;;;;;;;;;;;19.40;49.60;;;;;;5074836;28;19924;-67
2023/06/02 03:13:44;;;;;;;;;;;19.60;48.90;;;;;;5092209;28;20010;-67
2023/06/02 03:16:10;;;;;;;;;;;20.10;48.30;;;;;;5092272;28;20303;-66
2023/06/02 03:18:36;;;;;;;;;;;20.50;47.60;;;;;;5075058;28;20307;-67
2023/06/02 03:21:05;;;;;;;;;;;20.90;46.60;;;;;;5074747;28;19920;-67
2023/06/02 03:23:30;;;;;;;;;;;21.40;45.70;;;;;;5074917;28;19927;-66
2023/06/02 03:25:56;;;;;;;;;;;21.80;45.00;;;;;;5074794;28;19928;-67
2023/06/02 03:28:21;;;;;;;;;;;22.10;44.40;;;;;;5074890;28;19921;-66
2023/06/02 03:30:47;;;;;;;;;;;22.30;43.90;;;;;;5091582;28;19967;-67
2023/06/02 03:33:12;;;;;;;;;;;22.50;43.40;;;;;;5091643;28;20298;-67
2023/06/02 03:35:38;;;;;;;;;;;22.60;43.20;;;;;;5091832;28;19969;-67
2023/06/02 03:38:05;;;;;;;;;;;22.70;42.90;;;;;;5074668;28;19934;-67
2023/06/02 03:40:31;;;;;;;;;;;22.70;42.80;;;;;;5074830;28;19920;-67
2023/06/02 03:42:56;;;;;;;;;;;22.60;42.80;;;;;;5091843;28;20382;-66
2023/06/02 03:45:22;;;;;;;;;;;22.60;42.90;;;;;;5074775;28;19920;-66
2023/06/02 03:47:47;;;;;;;;;;;22.50;43.00;;;;;;5092871;28;19947;-66
2023/06/02 03:50:13;;;;;;;;;;;22.40;43.10;;;;;;5074629;28;19985;-66
2023/06/02 03:52:38;;;;;;;;;;;22.20;43.20;;;;;;5074860;28;19973;-66
2023/06/02 03:55:04;;;;;;;;;;;22.20;43.50;;;;;;5074409;28;20336;-67
2023/06/02 03:57:30;;;;;;;;;;;22.00;43.60;;;;;;5091608;28;19924;-67
2023/06/02 03:59:55;;;;;;;;;;;21.90;43.80;;;;;;5074416;28;19953;-66
2023/06/02 04:02:21;;;;;;;;;;;21.80;43.90;;;;;;5091200;28;19920;-67
2023/06/02 04:04:46;;;;;;;;;;;21.70;44.20;;;;;;5091600;28;20302;-66
2023/06/02 04:07:12;;;;;;;;;;;21.50;44.30;;;;;;5074707;28;19920;-66
2023/06/02 04:09:37;;;;;;;;;;;21.40;44.60;;;;;;5090990;28;20341;-66
2023/06/02 04:12:03;;;;;;;;;;;21.30;44.80;;;;;;5074203;28;20010;-66
2023/06/02 04:14:30;;;;;;;;;;;21.20;44.90;;;;;;5074287;28;20303;-67
2023/06/02 04:16:56;;;;;;;;;;;21.10;45.10;;;;;;5074583;28;20384;-67
2023/06/02 04:19:21;;;;;;;;;;;21.00;45.30;;;;;;5074302;28;19920;-66
2023/06/02 04:21:47;;;;;;;;;;;20.90;45.50;;;;;;5074503;28;19942;-67
2023/06/02 04:24:12;;;;;;;;;;;20.90;45.80;;;;;;5074217;28;20398;-67
2023/06/02 04:26:38;;;;;;;;;;;20.90;45.90;;;;;;5074415;28;19973;-67
2023/06/02 04:29:03;;;;;;;;;;;20.90;45.90;;;;;;5074225;28;19920;-66
2023/06/02 04:31:45;;;;;;;;;;;21.00;45.80;;;;;;5092775;28;20029;-67
2023/06/02 04:34:12;;;;;;;;;;;21.10;45.60;;;;;;5078427;28;19924;-67
2023/06/02 04:36:37;;;;;;;;;;;21.20;45.50;;;;;;5078260;28;19927;-66
2023/06/02 04:39:05;;;;;;;;;;;21.20;45.30;;;;;;5078085;28;19920;-67
2023/06/02 04:41:31;;;;;;;;;;;21.30;45.20;;;;;;5078304;28;19928;-67
2023/06/02 04:43:58;;;;;;;;;;;21.30;45.00;;;;;;5077977;28;19926;-66
2023/06/02 04:46:25;;;;;;;;;;;21.30;44.90;;;;;;5078257;28;20386;-66
2023/06/02 04:48:50;;;;;;;;;;;21.30;45.50;;;;;;5096134;28;19920;-66
2023/06/02 04:51:16;;;;;;;;;;;21.40;44.90;;;;;;5077851;28;20328;-66
2023/06/02 04:53:41;;;;;;;;;;;21.40;44.80;;;;;;5095992;28;19967;-67
2023/06/02 04:56:07;;;;;;;;;;;21.40;44.90;;;;;;5077792;28;19969;-67
2023/06/02 04:58:33;;;;;;;;;;;21.40;44.80;;;;;;5077876;28;20342;-67
2023/06/02 05:01:00;;;;;;;;;;;21.40;44.80;;;;;;5078001;28;20307;-66
2023/06/02 05:03:26;;;;;;;;;;;21.40;44.60;;;;;;5095737;28;19959;-67
2023/06/02 05:05:51;;;;;;;;;;;21.40;44.70;;;;;;5095771;28;20354;-67
2023/06/02 05:08:17;;;;;;;;;;;21.40;44.70;;;;;;5077509;28;19970;-66
2023/06/02 05:10:42;;;;;;;;;;;21.40;44.70;;;;;;5077116;28;19924;-67
2023/06/02 05:13:08;;;;;;;;;;;21.40;44.70;;;;;;5095550;28;19920;-66
2023/06/02 05:15:33;;;;;;;;;;;21.40;44.60;;;;;;5094642;28;19927;-67
2023/06/02 05:17:59;;;;;;;;;;;21.40;44.60;;;;;;5094488;28;20402;-66
2023/06/02 05:20:24;;;;;;;;;;;21.40;44.60;;;;;;5095527;28;20419;-66
2023/06/02 05:22:50;;;;;;;;;;;21.40;44.70;;;;;;5095441;28;19921;-66
2023/06/02 05:25:15;;;;;;;;;;;21.30;44.70;;;;;;5094329;28;19920;-67
2023/06/02 05:27:41;;;;;;;;;;;21.30;44.80;;;;;;5077116;28;19920;-67
2023/06/02 05:30:07;;;;;;;;;;;21.30;44.90;;;;;;5094074;28;19977;-66
2023/06/02 05:32:32;;;;;;;;;;;21.30;44.80;;;;;;5076277;28;20010;-66
2023/06/02 05:34:58;;;;;;;;;;;21.30;44.80;;;;;;5088081;28;19924;-67
2023/06/02 05:37:23;;;;;;;;;;;21.30;44.90;;;;;;5073928;28;19920;-66
2023/06/02 05:39:49;;;;;;;;;;;21.30;45.00;;;;;;5093786;28;20287;-66
2023/06/02 05:42:14;;;;;;;;;;;21.40;44.90;;;;;;5093363;28;19927;-67
2023/06/02 05:44:40;;;;;;;;;;;21.30;44.90;;;;;;5075491;28;19926;-67
2023/06/02 05:47:05;;;;;;;;;;;21.40;44.80;;;;;;5092978;28;19972;-66
2023/06/02 05:49:31;;;;;;;;;;;21.40;44.90;;;;;;5073490;28;19920;-66
2023/06/02 05:51:56;;;;;;;;;;;21.40;44.80;;;;;;5071825;28;19924;-66
2023/06/02 05:54:22;;;;;;;;;;;21.40;44.80;;;;;;5073547;28;19920;-66
2023/06/02 05:56:47;;;;;;;;;;;21.40;44.80;;;;;;5092026;28;19920;-66
2023/06/02 05:59:13;;;;;;;;;;;21.30;44.70;;;;;;5073523;28;20011;-66
2023/06/02 06:01:38;;;;;;;;;;;21.30;44.70;;;;;;5090750;28;19954;-66
2023/06/02 06:04:04;;;;;;;;;;;21.30;44.70;;;;;;5074094;28;20521;-67
2023/06/02 06:06:30;;;;;;;;;;;21.30;44.80;;;;;;5090154;28;19920;-66
2023/06/02 06:08:56;;;;;;;;;;;21.30;44.80;;;;;;5070464;28;19927;-66
2023/06/02 06:11:22;;;;;;;;;;;21.30;44.60;;;;;;5071188;28;19950;-67
2023/06/02 06:13:48;;;;;;;;;;;21.30;44.70;;;;;;5064254;28;20023;-66
2023/06/02 06:16:13;;;;;;;;;;;21.30;44.70;;;;;;5073435;28;19924;-69
2023/06/02 06:18:39;;;;;;;;;;;21.40;44.70;;;;;;5076007;28;19931;-68
2023/06/02 06:21:04;;;;;;;;;;;21.50;44.90;;;;;;5073383;28;19924;-66
2023/06/02 06:23:30;;;;;;;;;;;21.50;44.80;;;;;;5061598;28;20291;-67
2023/06/02 06:25:55;;;;;;;;;;;21.50;44.90;;;;;;5060994;28;19931;-69
2023/06/02 06:28:21;;;;;;;;;;;21.50;44.90;;;;;;5057162;28;19920;-68
2023/06/02 06:30:46;;;;;;;;;;;21.50;45.00;;;;;;5058613;28;19928;-67
2023/06/02 06:33:12;;;;;;;;;;;21.40;44.90;;;;;;5067604;28;19928;-67
2023/06/02 06:35:37;;;;;;;;;;;21.40;44.90;;;;;;5058812;28;20031;-67
2023/06/02 06:38:04;;;;;;;;;;;21.40;45.00;;;;;;5050428;28;19943;-68
2023/06/02 06:40:30;;;;;;;;;;;21.40;45.00;;;;;;5052916;28;19925;-67
2023/06/02 06:42:56;;;;;;;;;;;21.30;45.00;;;;;;5057565;28;19928;-67
2023/06/02 06:45:21;;;;;;;;;;;21.40;45.10;;;;;;5053621;28;19932;-67
2023/06/02 06:47:47;;;;;;;;;;;21.30;45.10;;;;;;5053313;28;19934;-67
2023/06/02 06:50:14;;;;;;;;;;;21.30;45.30;;;;;;5055591;28;19968;-67
2023/06/02 06:52:39;;;;;;;;;;;21.40;45.40;;;;;;5057898;28;19924;-67
2023/06/02 06:55:05;;;;;;;;;;;21.30;45.40;;;;;;5071463;28;19924;-67
2023/06/02 06:57:31;;;;;;;;;;;21.30;45.30;;;;;;5071723;28;20008;-67
2023/06/02 06:59:57;;;;;;;;;;;21.30;45.40;;;;;;5070497;28;19947;-68
2023/06/02 07:02:22;;;;;;;;;;;21.30;45.40;;;;;;5076729;28;20383;-67
2023/06/02 07:04:48;;;;;;;;;;;21.30;45.50;;;;;;5055697;28;19924;-67
2023/06/02 07:07:14;;;;;;;;;;;21.20;45.50;;;;;;5076000;28;20364;-68
2023/06/02 07:09:39;;;;;;;;;;;21.20;45.50;;;;;;5053947;28;19925;-69
2023/06/02 07:12:05;;;;;;;;;;;21.20;45.50;;;;;;5060291;28;19932;-68
2023/06/02 07:14:30;;;;;;;;;;;21.20;45.50;;;;;;5061366;28;19924;-68
2023/06/02 07:16:56;;;;;;;;;;;21.20;45.60;;;;;;5064237;28;19924;-68
2023/06/02 07:19:22;;;;;;;;;;;21.20;45.70;;;;;;5072745;28;19923;-68
2023/06/02 07:21:47;;;;;;;;;;;21.30;45.60;;;;;;5056671;28;20489;-68
2023/06/02 07:24:13;;;;;;;;;;;21.30;45.50;;;;;;5055923;28;19924;-68
2023/06/02 07:26:38;;;;;;;;;;;21.40;45.60;;;;;;5055611;28;19924;-67
2023/06/02 07:29:04;;;;;;;;;;;21.30;45.60;;;;;;5053665;28;19921;-68
2023/06/02 07:31:29;;;;;;;;;;;21.40;45.70;;;;;;5053958;28;20304;-70
2023/06/02 07:33:56;;;;;;;;;;;21.40;45.70;;;;;;5053908;28;19936;-66
2023/06/02 07:36:22;;;;;;;;;;;21.40;45.70;;;;;;5057483;28;19932;-70
2023/06/02 07:38:48;;;;;;;;;;;21.40;45.70;;;;;;5053706;28;19957;-67
2023/06/02 07:41:13;;;;;;;;;;;21.40;45.70;;;;;;5055434;28;19930;-68
2023/06/02 07:43:38;;;;;;;;;;;21.40;45.70;;;;;;5052262;28;20311;-69
2023/06/02 07:46:04;;;;;;;;;;;21.40;46.50;;;;;;5070401;28;19925;-68
2023/06/02 07:48:29;;;;;;;;;;;21.40;45.90;;;;;;5055513;28;21747;-68
2023/06/02 07:50:55;;;;;;;;;;;21.40;46.00;;;;;;5053930;28;19992;-68
2023/06/02 07:53:20;;;;;;;;;;;21.40;46.00;;;;;;5056968;28;19942;-70
2023/06/02 07:55:46;;;;;;;;;;;21.40;46.20;;;;;;5051158;28;20419;-67
2023/06/02 07:58:11;;;;;;;;;;;21.40;46.40;;;;;;5050662;28;19930;-69
2023/06/02 08:00:38;;;;;;;;;;;21.40;46.70;;;;;;5053213;28;20042;-68
2023/06/02 08:03:03;;;;;;;;;;;21.40;46.70;;;;;;5054955;28;20745;-68
2023/06/02 08:05:29;;;;;;;;;;;21.40;46.70;;;;;;5059939;28;19925;-67
2023/06/02 08:07:54;;;;;;;;;;;21.40;46.80;;;;;;5067617;28;19928;-68
2023/06/02 08:10:20;;;;;;;;;;;21.40;47.00;;;;;;5052064;28;20046;-71
2023/06/02 08:12:45;;;;;;;;;;;21.40;47.20;;;;;;5053190;28;19924;-69
2023/06/02 08:15:11;;;;;;;;;;;21.30;47.10;;;;;;5045110;28;20429;-69
2023/06/02 08:17:36;;;;;;;;;;;21.30;47.10;;;;;;5054539;28;19928;-70
2023/06/02 08:20:02;;;;;;;;;;;21.30;47.20;;;;;;5048063;28;20358;-70
2023/06/02 08:22:28;;;;;;;;;;;21.30;47.20;;;;;;5066448;28;19999;-68
2023/06/02 08:24:54;;;;;;;;;;;21.30;47.30;;;;;;5035883;28;19927;-68
2023/06/02 08:27:21;;;;;;;;;;;21.20;47.60;;;;;;5069156;28;19936;-69
2023/06/02 08:29:49;;;;;;;;;;;21.20;47.50;;;;;;5056829;28;20350;-68
2023/06/02 08:32:17;;;;;;;;;;;21.30;47.70;;;;;;5051479;28;19921;-68
2023/06/02 08:34:44;;;;;;;;;;;21.30;47.80;;;;;;5064857;28;20002;-69
2023/06/02 08:37:15;;;;;;;;;;;21.20;47.80;;;;;;5056724;28;19931;-66
2023/06/02 08:39:40;;;;;;;;;;;21.20;47.90;;;;;;5069878;28;19920;-68
2023/06/02 08:42:08;;;;;;;;;;;21.20;47.80;;;;;;5053905;28;19928;-68
2023/06/02 08:44:35;;;;;;;;;;;21.20;47.90;;;;;;5058347;28;19927;-68
2023/06/02 08:47:01;;;;;;;;;;;21.20;47.90;;;;;;5055441;28;19963;-73
2023/06/02 08:49:27;;;;;;;;;;;21.20;48.00;;;;;;5071629;28;19983;-67
2023/06/02 08:51:59;;;;;;;;;;;21.20;48.00;;;;;;5055164;28;20413;-67
2023/06/02 08:54:25;;;;;;;;;;;21.20;48.10;;;;;;5055214;28;19925;-68
2023/06/02 08:56:51;;;;;;;;;;;21.20;48.10;;;;;;5054715;28;20447;-67
2023/06/02 08:59:20;;;;;;;;;;;21.10;48.20;;;;;;5061415;28;19920;-67
2023/06/02 09:01:46;;;;;;;;;;;21.10;48.20;;;;;;5055918;28;20006;-73
2023/06/02 09:04:12;;;;;;;;;;;21.10;48.40;;;;;;5067325;28;19967;-69
2023/06/02 09:06:37;;;;;;;;;;;21.10;48.50;;;;;;5056173;28;19960;-68
2023/06/02 09:09:03;;;;;;;;;;;21.10;48.70;;;;;;5070650;28;19930;-67
2023/06/02 09:11:30;;;;;;;;;;;21.00;48.60;;;;;;5052285;28;19928;-67
2023/06/02 09:13:57;;;;;;;;;;;21.00;48.60;;;;;;5069988;28;20375;-68
2023/06/02 09:16:23;;;;;;;;;;;21.00;48.60;;;;;;5069697;28;19973;-67
2023/06/02 09:19:04;;;;;;;;;;;21.00;48.70;;;;;;5074006;28;19924;-67
2023/06/02 09:21:32;;;;;;;;;;;20.90;48.80;;;;;;5057901;28;19927;-68
2023/06/02 09:23:58;;;;;;;;;;;20.90;48.80;;;;;;5055827;28;20426;-67
2023/06/02 09:26:25;;;;;;;;;;;20.90;48.80;;;;;;5053393;28;19924;-68
2023/06/02 09:28:59;;;;;;;;;;;20.90;48.80;;;;;;5053869;28;19928;-67
2023/06/02 09:31:28;;;;;;;;;;;20.90;49.00;;;;;;5053969;28;19970;-67
2023/06/02 09:33:55;;;;;;;;;;;20.80;48.90;;;;;;5070391;28;20421;-70
2023/06/02 09:36:29;;;;;;;;;;;20.80;49.00;;;;;;5072267;28;20356;-69
2023/06/02 09:38:54;;;;;;;;;;;20.70;49.10;;;;;;5069395;28;19924;-70
2023/06/02 09:41:20;;;;;;;;;;;20.70;49.10;;;;;;5054124;28;19931;-69
2023/06/02 09:43:45;;;;;;;;;;;20.60;49.20;;;;;;5071672;28;20026;-72
2023/06/02 09:46:13;;;;;;;;;;;20.60;49.30;;;;;;5052495;28;20363;-68
2023/06/02 09:48:52;;;;;;;;;;;20.60;49.30;;;;;;5060416;28;19924;-71
2023/06/02 09:51:21;;;;;;;;;;;20.60;49.40;;;;;;5070650;28;20316;-68
2023/06/02 09:53:46;;;;;;;;;;;20.50;49.40;;;;;;5072643;28;20397;-69
2023/06/02 09:56:12;;;;;;;;;;;20.50;49.50;;;;;;5058201;28;19978;-68
2023/06/02 09:58:37;;;;;;;;;;;20.50;49.50;;;;;;5064645;28;19925;-67
2023/06/02 10:01:03;;;;;;;;;;;20.50;49.60;;;;;;5051025;28;19927;-68
2023/06/02 10:03:28;;;;;;;;;;;20.50;49.70;;;;;;5049199;28;19928;-72
2023/06/02 10:06:05;;;;;;;;;;;20.50;50.00;;;;;;5051164;28;20009;-73
2023/06/02 10:08:36;;;;;;;;;;;20.50;50.20;;;;;;5060169;28;19924;-71
2023/06/02 10:13:59;;;;;;;;;;;20.50;50.80;;;;;;5055861;28;19923;-68
2023/06/02 10:22:01;;;;;;;;;;;20.60;51.20;;;;;;5013279;28;19914;-69
2023/06/02 10:24:37;;;;;;;;;;;20.60;51.60;;;;;;4999844;28;19930;-70
2023/06/02 10:27:22;;;;;;;;;;;20.60;51.70;;;;;;5042048;28;19977;-70
2023/06/02 10:29:50;;;;;;;;;;;20.70;51.40;;;;;;5001492;28;19929;-70
2023/06/02 10:32:18;;;;;;;;;;;20.70;51.30;;;;;;5009417;28;19925;-71
2023/06/02 10:34:47;;;;;;;;;;;20.60;51.60;;;;;;5009757;28;19948;-70
2023/06/02 10:37:13;;;;;;;;;;;20.70;51.20;;;;;;5010121;28;19925;-70
2023/06/02 10:42:21;;;;;;;;;;;20.60;51.80;;;;;;5096122;27;20427;-69
2023/06/02 10:44:47;;;;;;;;;;;20.70;51.10;;;;;;5105845;28;19928;-70
2023/06/02 10:50:03;;;;;;;;;;;20.60;51.90;;;;;;5082367;27;19957;-69
2023/06/02 10:52:31;;;;;;;;;;;20.60;51.30;;;;;;5054305;28;19932;-74
2023/06/02 10:57:53;;;;;;;;;;;20.60;52.10;;;;;;5075732;27;20395;-69
2023/06/02 11:06:11;;;;;;;;;;;20.80;53.40;;;;;;5077335;27;19920;-71
2023/06/02 11:08:37;;;;;;;;;;;20.90;53.40;;;;;;5075966;28;19924;-68
2023/06/02 11:11:03;;;;;;;;;;;20.80;53.20;;;;;;5070985;28;20014;-69
2023/06/02 11:13:29;;;;;;;;;;;20.80;53.20;;;;;;5075888;28;20257;-69
2023/06/02 11:21:19;;;;;;;;;;;20.90;53.40;;;;;;5089663;27;19926;-68
2023/06/02 11:23:45;;;;;;;;;;;21.00;53.60;;;;;;5091281;28;19924;-68
2023/06/02 11:26:13;;;;;;;;;;;21.00;53.40;;;;;;5117958;27;19928;-69
2023/06/02 11:28:38;;;;;;;;;;;21.00;53.50;;;;;;5090708;28;19924;-69
2023/06/02 11:31:07;;;;;;;;;;;21.00;53.30;;;;;;5088051;28;19920;-68
2023/06/02 11:33:33;;;;;;;;;;;21.00;53.30;;;;;;5084107;28;19932;-72
2023/06/02 11:35:59;;;;;;;;;;;21.00;53.40;;;;;;5083083;28;19924;-70
2023/06/02 11:38:32;;;;;;;;;;;20.90;53.40;;;;;;5084308;28;20795;-69
2023/06/02 11:41:13;;;;;;;;;;;20.90;53.40;;;;;;5085023;28;19928;-71
2023/06/02 11:43:40;;;;;;;;;;;20.90;53.40;;;;;;5076397;28;19932;-74
2023/06/02 11:46:07;;;;;;;;;;;21.00;53.50;;;;;;5083309;28;19924;-73
2023/06/02 11:48:32;;;;;;;;;;;20.90;53.40;;;;;;5080901;28;19931;-71
2023/06/02 11:50:58;;;;;;;;;;;20.90;53.50;;;;;;5085985;28;19923;-81
2023/06/02 11:53:23;;;;;;;;;;;20.90;53.40;;;;;;5084346;28;19924;-72
2023/06/02 11:55:51;;;;;;;;;;;20.90;53.80;;;;;;5123470;27;19928;-72
2023/06/02 11:58:18;;;;;;;;;;;20.90;53.80;;;;;;5117780;27;19932;-73
2023/06/02 12:00:44;;;;;;;;;;;20.90;53.30;;;;;;5083940;28;20034;-75
2023/06/02 12:03:12;;;;;;;;;;;20.90;53.20;;;;;;5085961;28;19988;-70
2023/06/02 12:05:42;;;;;;;;;;;21.00;53.20;;;;;;5119803;27;19924;-69
2023/06/02 12:08:10;;;;;;;;;;;20.90;53.10;;;;;;5088744;28;19924;-70
2023/06/02 12:10:35;;;;;;;;;;;21.00;53.10;;;;;;5088655;28;20456;-69
2023/06/02 12:13:01;;;;;;;;;;;21.00;53.10;;;;;;5085992;28;19980;-68
2023/06/02 12:15:32;;;;;;;;;;;21.00;53.30;;;;;;5083270;28;20487;-73
2023/06/02 12:18:00;;;;;;;;;;;21.00;53.10;;;;;;5094362;28;20045;-72
2023/06/02 12:20:35;;;;;;;;;;;21.00;52.80;;;;;;5086110;28;19924;-72
2023/06/02 12:23:00;;;;;;;;;;;21.00;52.50;;;;;;5087024;28;20298;-72
2023/06/02 12:25:26;;;;;;;;;;;21.00;52.30;;;;;;5088362;28;19921;-72
2023/06/02 12:27:52;;;;;;;;;;;21.10;52.10;;;;;;5092235;28;19924;-71
2023/06/02 12:30:17;;;;;;;;;;;21.00;51.80;;;;;;5085662;28;20042;-70
2023/06/02 12:32:43;;;;;;;;;;;21.10;51.90;;;;;;5076024;28;20298;-68
2023/06/02 12:35:09;;;;;;;;;;;21.10;51.90;;;;;;5072312;28;19920;-69
2023/06/02 12:37:34;;;;;;;;;;;21.10;52.10;;;;;;5074110;28;20305;-71
2023/06/02 12:40:00;;;;;;;;;;;21.00;52.00;;;;;;5074748;28;20401;-70
2023/06/02 12:42:25;;;;;;;;;;;21.00;51.80;;;;;;5075161;28;20141;-69
2023/06/02 12:44:52;;;;;;;;;;;21.00;51.90;;;;;;5077025;28;19920;-69
2023/06/02 12:47:18;;;;;;;;;;;21.00;52.00;;;;;;5072394;28;19928;-80
2023/06/02 12:49:47;;;;;;;;;;;21.00;52.00;;;;;;5073043;28;19920;-67
2023/06/02 12:52:14;;;;;;;;;;;21.00;52.00;;;;;;5078569;28;20564;-70
2023/06/02 12:54:40;;;;;;;;;;;21.00;52.00;;;;;;5074747;28;19924;-70
2023/06/02 12:57:06;;;;;;;;;;;21.00;51.70;;;;;;5074419;28;19920;-66
2023/06/02 12:59:31;;;;;;;;;;;21.00;51.30;;;;;;5074033;28;19967;-67
2023/06/02 13:01:57;;;;;;;;;;;21.00;51.90;;;;;;5072452;28;20497;-77
2023/06/02 13:04:22;;;;;;;;;;;21.00;51.20;;;;;;5076125;28;19930;-78
2023/06/02 13:06:48;;;;;;;;;;;21.00;51.20;;;;;;5075639;28;20284;-77
2023/06/02 13:09:13;;;;;;;;;;;21.10;51.00;;;;;;5075585;28;19967;-78
2023/06/02 13:11:40;;;;;;;;;;;21.10;51.00;;;;;;5080017;28;20009;-78
2023/06/02 13:14:06;;;;;;;;;;;21.10;50.80;;;;;;5087489;28;19925;-78
2023/06/02 13:16:32;;;;;;;;;;;21.10;50.30;;;;;;5087266;28;19956;-78
2023/06/02 13:18:57;;;;;;;;;;;21.10;50.00;;;;;;5091241;28;19954;-77
2023/06/02 13:21:22;;;;;;;;;;;21.20;49.80;;;;;;5092883;28;19973;-78
2023/06/02 13:23:52;;;;;;;;;;;21.10;49.70;;;;;;5090271;28;20327;-71
2023/06/02 13:26:18;;;;;;;;;;;21.20;49.40;;;;;;5093140;28;19927;-71
2023/06/02 13:28:44;;;;;;;;;;;21.20;49.20;;;;;;5093260;28;19919;-69
2023/06/02 13:31:11;;;;;;;;;;;21.10;49.40;;;;;;5092161;28;20435;-76
2023/06/02 13:33:36;;;;;;;;;;;21.20;49.30;;;;;;5104272;27;19927;-78
2023/06/02 13:36:02;;;;;;;;;;;21.20;49.00;;;;;;5100247;28;20440;-73
2023/06/02 13:38:27;;;;;;;;;;;21.20;48.80;;;;;;5092076;28;19971;-65
2023/06/02 13:40:53;;;;;;;;;;;21.20;48.60;;;;;;5091973;28;19920;-69
2023/06/02 13:43:18;;;;;;;;;;;21.30;48.80;;;;;;5092293;28;19923;-69
2023/06/02 13:45:44;;;;;;;;;;;21.30;48.50;;;;;;5094029;28;20435;-69
2023/06/02 13:48:09;;;;;;;;;;;21.30;48.20;;;;;;5094675;28;20426;-69
2023/06/02 13:50:35;;;;;;;;;;;21.30;48.00;;;;;;5087740;28;20008;-69
2023/06/02 13:53:00;;;;;;;;;;;21.30;47.90;;;;;;5088653;28;19927;-69
2023/06/02 13:55:28;;;;;;;;;;;21.30;48.00;;;;;;5090030;28;19990;-69
2023/06/02 13:57:53;;;;;;;;;;;21.30;47.80;;;;;;5091845;28;19928;-69
2023/06/02 14:00:19;;;;;;;;;;;21.30;47.60;;;;;;5072366;28;19951;-69
2023/06/02 14:02:45;;;;;;;;;;;21.30;47.60;;;;;;5084265;28;19923;-69
2023/06/02 14:05:10;;;;;;;;;;;21.40;47.60;;;;;;5091627;28;19920;-71
2023/06/02 14:07:36;;;;;;;;;;;21.40;47.70;;;;;;5093492;28;19926;-67
2023/06/02 14:10:02;;;;;;;;;;;21.40;48.00;;;;;;5092067;28;19935;-69
2023/06/02 14:12:27;;;;;;;;;;;21.40;48.00;;;;;;5086343;28;19948;-66
2023/06/02 14:14:53;;;;;;;;;;;21.40;48.00;;;;;;5092760;28;19920;-67
2023/06/02 14:17:18;;;;;;;;;;;21.50;47.90;;;;;;5089841;28;20237;-71
2023/06/02 14:19:44;;;;;;;;;;;21.50;48.00;;;;;;5104138;28;20027;-67
2023/06/02 14:22:09;;;;;;;;;;;21.50;47.70;;;;;;5105692;28;19955;-66
2023/06/02 14:24:35;;;;;;;;;;;21.60;47.50;;;;;;5090486;28;20002;-69
2023/06/02 14:27:00;;;;;;;;;;;21.50;47.30;;;;;;5089579;28;19942;-69
2023/06/02 14:29:26;;;;;;;;;;;21.50;48.00;;;;;;5087462;28;19947;-69
2023/06/02 14:31:52;;;;;;;;;;;21.50;47.40;;;;;;5089670;28;19920;-69
2023/06/02 14:34:17;;;;;;;;;;;21.50;47.60;;;;;;5092841;28;20291;-69
2023/06/02 14:36:43;;;;;;;;;;;21.40;47.60;;;;;;5092842;28;19976;-69
2023/06/02 14:39:08;;;;;;;;;;;21.40;48.60;;;;;;5093234;28;19919;-69